Time;durP1;ratioP1;P1;durP2;ratioP2;P2;SDS_P1;SDS_P2;PMS_P1;PMS_P2;Temp;Humidity;BMP_temperature;BMP_pressure;BME280_temperature;BME280_humidity;BME280_pressure;Samples;Min_cycle;Max_cycle;Signal;HPM_P1;HPM_P2
2021/09/11 00:02:10;;;;;;;;;;;;;;;20.43;100.00;98745.31;5057954;28;19932;-83
2021/09/11 00:04:58;;;;;;;;;;;;;;;20.66;100.00;98736.53;5072793;28;20395;-83
2021/09/11 00:07:25;;;;;;;;;;;;;;;20.38;100.00;98743.19;5073598;28;20020;-83
2021/09/11 00:09:52;;;;;;;;;;;;;;;20.21;100.00;98742.19;5061160;28;19925;-83
2021/09/11 00:12:19;;;;;;;;;;;;;;;20.23;100.00;98734.75;5066592;28;19949;-83
2021/09/11 00:14:46;;;;;;;;;;;;;;;20.22;100.00;98738.84;5065434;28;19925;-83
2021/09/11 00:17:14;;;;;;;;;;;;;;;20.35;100.00;98744.16;5065545;28;20402;-83
2021/09/11 00:19:41;;;;;;;;;;;;;;;20.31;100.00;98744.38;5073427;28;19931;-83
2021/09/11 00:22:08;;;;;;;;;;;;;;;20.62;100.00;98735.19;5072342;28;19991;-83
2021/09/11 00:24:35;;;;;;;;;;;;;;;20.65;100.00;98734.19;5072128;28;20334;-83
2021/09/11 00:27:02;;;;;;;;;;;;;;;20.60;100.00;98740.63;5073404;28;19974;-83
2021/09/11 00:29:29;;;;;;;;;;;;;;;20.58;100.00;98740.31;5071921;28;19928;-83
2021/09/11 00:31:56;;;;;;;;;;;;;;;20.09;100.00;98737.59;5072305;28;19925;-83
2021/09/11 00:34:23;;;;;;;;;;;;;;;20.39;100.00;98728.50;5057831;28;19924;-83
2021/09/11 00:36:50;;;;;;;;;;;;;;;20.43;100.00;98739.63;5058524;28;19924;-83
2021/09/11 00:39:17;;;;;;;;;;;;;;;20.94;100.00;98729.09;5072356;28;20014;-83
2021/09/11 00:41:44;;;;;;;;;;;;;;;20.74;100.00;98725.53;5072751;28;20335;-83
2021/09/11 00:44:12;;;;;;;;;;;;;;;20.93;100.00;98715.41;5073212;28;19987;-83
2021/09/11 00:46:39;;;;;;;;;;;;;;;20.88;100.00;98724.66;5056594;28;19935;-83
2021/09/11 00:49:06;;;;;;;;;;;;;;;21.09;100.00;98715.59;5049759;28;19931;-83
2021/09/11 00:51:33;;;;;;;;;;;;;;;21.10;100.00;98719.19;5057188;28;19925;-83
2021/09/11 00:54:01;;;;;;;;;;;;;;;21.20;100.00;98720.59;5076898;28;19973;-83
2021/09/11 00:56:29;;;;;;;;;;;;;;;21.31;100.00;98715.00;5076017;28;19968;-83
2021/09/11 00:58:58;;;;;;;;;;;;;;;20.94;100.00;98716.97;5075502;28;20106;-83
2021/09/11 01:01:25;;;;;;;;;;;;;;;21.00;100.00;98715.78;5075458;28;19924;-83
2021/09/11 01:03:52;;;;;;;;;;;;;;;20.88;100.00;98718.97;5075646;28;19978;-83
2021/09/11 01:06:20;;;;;;;;;;;;;;;21.10;100.00;98707.84;5092535;28;20545;-83
2021/09/11 01:08:47;;;;;;;;;;;;;;;20.80;100.00;98717.84;5075677;28;19924;-83
2021/09/11 01:11:18;;;;;;;;;;;;;;;21.03;100.00;98708.28;5041822;28;20015;-84
2021/09/11 01:13:45;;;;;;;;;;;;;;;20.58;100.00;98706.28;5075067;28;19931;-83
2021/09/11 01:16:12;;;;;;;;;;;;;;;20.53;100.00;98715.50;5075216;28;20287;-83
2021/09/11 01:18:39;;;;;;;;;;;;;;;20.27;100.00;98711.81;5047968;28;19936;-83
2021/09/11 01:21:07;;;;;;;;;;;;;;;20.58;100.00;98712.72;5055329;28;20071;-83
2021/09/11 01:23:38;;;;;;;;;;;;;;;20.75;100.00;98708.00;5042314;28;20277;-83
2021/09/11 01:26:07;;;;;;;;;;;;;;;20.48;100.00;98713.38;5058350;28;19932;-83
2021/09/11 01:28:34;;;;;;;;;;;;;;;20.44;100.00;98718.47;5059030;28;20022;-83
2021/09/11 01:31:01;;;;;;;;;;;;;;;20.65;100.00;98711.50;5041268;28;20023;-83
2021/09/11 01:33:28;;;;;;;;;;;;;;;20.52;100.00;98714.69;5061697;28;19931;-83
2021/09/11 01:35:55;;;;;;;;;;;;;;;20.40;100.00;98712.25;5074773;28;19970;-83
2021/09/11 01:38:23;;;;;;;;;;;;;;;20.34;100.00;98722.75;5091859;28;19932;-83
2021/09/11 01:40:50;;;;;;;;;;;;;;;20.19;100.00;98713.56;5058144;28;19929;-83
2021/09/11 01:43:25;;;;;;;;;;;;;;;20.49;100.00;98709.25;5041633;28;19924;-83
2021/09/11 01:45:52;;;;;;;;;;;;;;;20.25;100.00;98720.84;5076126;28;19928;-83
2021/09/11 01:48:20;;;;;;;;;;;;;;;20.06;100.00;98718.75;5058140;28;20393;-83
2021/09/11 01:50:48;;;;;;;;;;;;;;;19.98;100.00;98723.31;5065434;28;19925;-83
2021/09/11 01:53:15;;;;;;;;;;;;;;;20.29;100.00;98731.97;5069947;28;19924;-83
2021/09/11 01:55:45;;;;;;;;;;;;;;;20.06;100.00;98722.38;5058493;28;19928;-83
2021/09/11 01:58:12;;;;;;;;;;;;;;;20.01;100.00;98736.50;5075529;28;20022;-83
2021/09/11 02:00:39;;;;;;;;;;;;;;;19.99;100.00;98727.69;5075856;28;19924;-83
2021/09/11 02:03:07;;;;;;;;;;;;;;;19.92;100.00;98731.72;5057862;28;20011;-83
2021/09/11 02:05:37;;;;;;;;;;;;;;;20.11;100.00;98735.84;5074375;28;19930;-83
2021/09/11 02:08:07;;;;;;;;;;;;;;;20.02;100.00;98718.19;5079569;28;19936;-83
2021/09/11 02:10:34;;;;;;;;;;;;;;;19.96;100.00;98728.69;5073275;28;19930;-83
2021/09/11 02:13:02;;;;;;;;;;;;;;;19.79;100.00;98724.81;5084043;28;19924;-83
2021/09/11 02:15:29;;;;;;;;;;;;;;;19.89;100.00;98731.94;5061773;28;19932;-83
2021/09/11 02:17:56;;;;;;;;;;;;;;;19.76;100.00;98734.31;5056387;28;20356;-83
2021/09/11 02:20:23;;;;;;;;;;;;;;;19.57;100.00;98720.38;5074223;28;19931;-83
2021/09/11 02:22:50;;;;;;;;;;;;;;;19.75;100.00;98732.75;5043277;28;19928;-83
2021/09/11 02:25:17;;;;;;;;;;;;;;;20.02;100.00;98724.66;5073814;28;19925;-83
2021/09/11 02:27:44;;;;;;;;;;;;;;;20.16;100.00;98723.81;5073942;28;19924;-83
2021/09/11 02:30:12;;;;;;;;;;;;;;;19.97;100.00;98724.56;5073865;28;19933;-83
2021/09/11 02:32:39;;;;;;;;;;;;;;;19.67;100.00;98730.31;5073631;28;20470;-83
2021/09/11 02:35:08;;;;;;;;;;;;;;;19.81;100.00;98722.28;5059729;28;19925;-83
2021/09/11 02:37:35;;;;;;;;;;;;;;;19.73;100.00;98721.13;5074142;28;20017;-83
2021/09/11 02:40:03;;;;;;;;;;;;;;;19.76;100.00;98717.31;5069959;28;19924;-83
2021/09/11 02:42:30;;;;;;;;;;;;;;;19.31;100.00;98713.78;5064432;28;20037;-82
2021/09/11 02:44:57;;;;;;;;;;;;;;;19.47;100.00;98721.78;5074373;28;19932;-84
2021/09/11 02:47:24;;;;;;;;;;;;;;;19.28;100.00;98720.44;5073628;28;19924;-82
2021/09/11 02:49:51;;;;;;;;;;;;;;;19.41;100.00;98723.75;5057184;28;20012;-82
2021/09/11 02:52:18;;;;;;;;;;;;;;;19.53;100.00;98713.38;5074311;28;19925;-83
2021/09/11 02:54:45;;;;;;;;;;;;;;;19.30;100.00;98717.91;5073495;28;19924;-82
2021/09/11 02:57:12;;;;;;;;;;;;;;;19.44;100.00;98716.31;5075008;28;19964;-82
2021/09/11 02:59:39;;;;;;;;;;;;;;;19.22;100.00;98716.72;5073204;28;19924;-82
2021/09/11 03:02:07;;;;;;;;;;;;;;;19.72;100.00;98722.41;5038341;28;19933;-82
2021/09/11 03:04:34;;;;;;;;;;;;;;;19.62;100.00;98716.06;5036720;28;20027;-82
2021/09/11 03:07:01;;;;;;;;;;;;;;;20.03;100.00;98717.69;5068516;28;19978;-82
2021/09/11 03:09:29;;;;;;;;;;;;;;;19.78;100.00;98720.44;5045487;28;19924;-82
2021/09/11 03:11:56;;;;;;;;;;;;;;;19.79;100.00;98707.81;5059122;28;19931;-83
2021/09/11 03:14:24;;;;;;;;;;;;;;;19.83;100.00;98720.50;5073211;28;19931;-82
2021/09/11 03:16:51;;;;;;;;;;;;;;;19.86;100.00;98715.91;5072969;28;19975;-82
2021/09/11 03:19:18;;;;;;;;;;;;;;;20.02;100.00;98712.50;5073397;28;19925;-82
2021/09/11 03:21:45;;;;;;;;;;;;;;;20.08;100.00;98716.22;5073055;28;19925;-83
2021/09/11 03:24:12;;;;;;;;;;;;;;;20.06;100.00;98707.41;5074040;28;19924;-83
2021/09/11 03:26:40;;;;;;;;;;;;;;;19.98;100.00;98709.13;5074178;28;20815;-83
2021/09/11 03:29:07;;;;;;;;;;;;;;;19.89;100.00;98712.09;5074039;28;20019;-82
2021/09/11 03:31:34;;;;;;;;;;;;;;;19.58;100.00;98713.44;5068949;28;20023;-83
2021/09/11 03:34:01;;;;;;;;;;;;;;;19.74;100.00;98712.13;5065157;28;19924;-82
2021/09/11 03:36:28;;;;;;;;;;;;;;;19.67;100.00;98707.66;5073735;28;19924;-82
2021/09/11 03:38:56;;;;;;;;;;;;;;;19.80;100.00;98715.81;5072619;28;19929;-82
2021/09/11 03:41:23;;;;;;;;;;;;;;;19.90;100.00;98720.09;5072359;28;20027;-83
2021/09/11 03:43:50;;;;;;;;;;;;;;;19.82;100.00;98721.00;5067333;28;20449;-83
2021/09/11 03:46:18;;;;;;;;;;;;;;;19.60;100.00;98719.41;5060265;28;19925;-83
2021/09/11 03:48:45;;;;;;;;;;;;;;;19.33;100.00;98721.78;5039434;28;19974;-82
2021/09/11 03:51:12;;;;;;;;;;;;;;;19.66;100.00;98723.09;5073499;28;20383;-82
2021/09/11 03:53:39;;;;;;;;;;;;;;;19.59;100.00;98732.03;5048326;28;19925;-83
2021/09/11 03:56:06;;;;;;;;;;;;;;;19.61;100.00;98726.63;5066576;28;19924;-83
2021/09/11 03:58:33;;;;;;;;;;;;;;;19.40;100.00;98727.09;5058354;28;19933;-83
2021/09/11 04:01:01;;;;;;;;;;;;;;;19.29;100.00;98732.56;5052103;28;19928;-83
2021/09/11 04:03:29;;;;;;;;;;;;;;;19.24;100.00;98730.38;5070686;28;19929;-83
2021/09/11 04:05:56;;;;;;;;;;;;;;;19.36;100.00;98740.66;5055634;28;19925;-83
2021/09/11 04:08:24;;;;;;;;;;;;;;;19.37;100.00;98740.16;5057969;28;20376;-83
2021/09/11 04:10:52;;;;;;;;;;;;;;;19.60;100.00;98730.75;5072666;28;19924;-83
2021/09/11 04:13:19;;;;;;;;;;;;;;;19.33;100.00;98745.25;5040295;28;20387;-83
2021/09/11 04:15:47;;;;;;;;;;;;;;;19.34;100.00;98746.81;5061088;28;19955;-82
2021/09/11 04:18:14;;;;;;;;;;;;;;;19.52;100.00;98740.91;5058469;28;20291;-82
2021/09/11 04:20:41;;;;;;;;;;;;;;;19.38;100.00;98741.75;5071720;28;20023;-82
2021/09/11 04:23:08;;;;;;;;;;;;;;;19.45;100.00;98747.00;5076252;28;19925;-82
2021/09/11 04:25:36;;;;;;;;;;;;;;;19.32;100.00;98749.38;5063281;28;19940;-82
2021/09/11 04:28:04;;;;;;;;;;;;;;;19.08;100.00;98743.00;5049602;28;20062;-82
2021/09/11 04:30:31;;;;;;;;;;;;;;;19.19;100.00;98745.25;5072450;28;19934;-82
2021/09/11 04:32:58;;;;;;;;;;;;;;;19.23;100.00;98746.59;5077369;28;20326;-82
2021/09/11 04:35:25;;;;;;;;;;;;;;;19.37;100.00;98751.47;5075747;28;19932;-82
2021/09/11 04:37:53;;;;;;;;;;;;;;;19.28;100.00;98748.75;5075958;28;19925;-83
2021/09/11 04:40:19;;;;;;;;;;;;;;;19.18;100.00;98746.50;5076610;28;20432;-82
2021/09/11 04:42:47;;;;;;;;;;;;;;;18.98;100.00;98744.34;5053643;28;19932;-82
2021/09/11 04:45:14;;;;;;;;;;;;;;;19.20;100.00;98763.78;5067779;28;19963;-82
2021/09/11 04:47:41;;;;;;;;;;;;;;;19.11;100.00;98756.19;5061713;28;20395;-82
2021/09/11 04:50:08;;;;;;;;;;;;;;;19.20;100.00;98747.59;5059264;28;20433;-82
2021/09/11 04:52:36;;;;;;;;;;;;;;;19.17;100.00;98748.56;5060646;28;19939;-82
2021/09/11 04:55:03;;;;;;;;;;;;;;;19.41;100.00;98754.91;5068736;28;19925;-82
2021/09/11 04:57:30;;;;;;;;;;;;;;;19.39;100.00;98754.63;5069129;28;19930;-82
2021/09/11 04:59:57;;;;;;;;;;;;;;;19.45;100.00;98758.31;5024902;28;19960;-82
2021/09/11 05:02:25;;;;;;;;;;;;;;;19.24;100.00;98748.16;5084318;28;19925;-82
2021/09/11 05:04:53;;;;;;;;;;;;;;;18.88;100.00;98742.91;5061210;28;20382;-82
2021/09/11 05:07:20;;;;;;;;;;;;;;;18.92;100.00;98756.84;5092430;28;20019;-82
2021/09/11 05:09:47;;;;;;;;;;;;;;;19.01;100.00;98749.03;5092355;28;19925;-82
2021/09/11 05:12:14;;;;;;;;;;;;;;;19.19;100.00;98760.16;5076555;28;19931;-82
2021/09/11 05:14:41;;;;;;;;;;;;;;;19.11;100.00;98761.06;5044675;28;20500;-82
2021/09/11 05:17:08;;;;;;;;;;;;;;;19.14;100.00;98760.09;5051784;28;20416;-82
2021/09/11 05:19:35;;;;;;;;;;;;;;;18.80;100.00;98770.00;5068511;28;19924;-82
2021/09/11 05:22:02;;;;;;;;;;;;;;;18.90;100.00;98762.97;5075237;28;19925;-85
2021/09/11 05:24:29;;;;;;;;;;;;;;;18.87;100.00;98775.28;5047129;28;19924;-86
2021/09/11 05:26:56;;;;;;;;;;;;;;;19.09;100.00;98775.69;5052906;28;20466;-86
2021/09/11 05:29:25;;;;;;;;;;;;;;;18.64;100.00;98778.97;5038940;28;19932;-86
2021/09/11 05:31:53;;;;;;;;;;;;;;;18.69;100.00;98786.78;5054844;28;20019;-85
2021/09/11 05:34:20;;;;;;;;;;;;;;;18.76;100.00;98786.41;5076574;28;20272;-86
2021/09/11 05:36:50;;;;;;;;;;;;;;;18.66;100.00;98787.75;5072982;28;19925;-84
2021/09/11 05:39:18;;;;;;;;;;;;;;;18.64;100.00;98789.50;5074318;28;19929;-84
2021/09/11 05:41:45;;;;;;;;;;;;;;;18.63;100.00;98793.59;5055237;28;20406;-84
2021/09/11 05:44:12;;;;;;;;;;;;;;;18.81;100.00;98785.72;5074258;28;19956;-84
2021/09/11 05:46:39;;;;;;;;;;;;;;;18.66;100.00;98804.72;5048873;28;20406;-84
2021/09/11 05:49:07;;;;;;;;;;;;;;;18.65;100.00;98793.88;5056292;28;19974;-84
2021/09/11 05:51:34;;;;;;;;;;;;;;;18.73;100.00;98795.88;5036188;28;20003;-84
2021/09/11 05:54:01;;;;;;;;;;;;;;;18.66;100.00;98810.38;5072612;28;19931;-84
2021/09/11 05:56:28;;;;;;;;;;;;;;;18.72;100.00;98807.69;5055377;28;20367;-84
2021/09/11 05:58:55;;;;;;;;;;;;;;;18.65;100.00;98814.47;5074010;28;20037;-84
2021/09/11 06:01:23;;;;;;;;;;;;;;;18.90;100.00;98818.84;5072194;28;20367;-84
2021/09/11 06:03:50;;;;;;;;;;;;;;;19.13;100.00;98809.50;5072547;28;19985;-84
2021/09/11 06:06:17;;;;;;;;;;;;;;;19.26;100.00;98819.28;5072621;28;19929;-84
2021/09/11 06:08:44;;;;;;;;;;;;;;;18.71;100.00;98828.72;5055019;28;20016;-84
2021/09/11 06:11:11;;;;;;;;;;;;;;;18.67;100.00;98828.94;5055701;28;19947;-84
2021/09/11 06:13:39;;;;;;;;;;;;;;;19.12;100.00;98830.56;5072595;28;19967;-84
2021/09/11 06:16:08;;;;;;;;;;;;;;;19.15;100.00;98824.72;5072639;28;19935;-84
2021/09/11 06:18:35;;;;;;;;;;;;;;;18.91;100.00;98824.00;5078155;28;20318;-84
2021/09/11 06:21:02;;;;;;;;;;;;;;;19.04;100.00;98835.03;5081588;28;20043;-84
2021/09/11 06:23:29;;;;;;;;;;;;;;;19.08;100.00;98825.13;5059021;28;20376;-84
2021/09/11 06:26:00;;;;;;;;;;;;;;;19.25;100.00;98839.59;5046022;28;19928;-84
2021/09/11 06:28:27;;;;;;;;;;;;;;;19.26;100.00;98835.47;5072336;28;20342;-84
2021/09/11 06:30:54;;;;;;;;;;;;;;;19.28;100.00;98833.75;5072358;28;19932;-84
2021/09/11 06:33:22;;;;;;;;;;;;;;;18.81;100.00;98828.16;5069017;28;20020;-84
2021/09/11 06:35:50;;;;;;;;;;;;;;;19.06;100.00;98829.69;5072686;28;19924;-84
2021/09/11 06:38:18;;;;;;;;;;;;;;;19.03;100.00;98851.28;5074828;28;19925;-84
2021/09/11 06:40:45;;;;;;;;;;;;;;;19.03;100.00;98842.78;5070882;28;19924;-84
2021/09/11 06:43:12;;;;;;;;;;;;;;;19.29;100.00;98843.81;5063548;28;19924;-84
2021/09/11 06:45:39;;;;;;;;;;;;;;;18.84;100.00;98849.09;5068550;28;19928;-84
2021/09/11 06:48:06;;;;;;;;;;;;;;;18.89;100.00;98857.69;5073243;28;19924;-84
2021/09/11 06:50:33;;;;;;;;;;;;;;;18.81;100.00;98856.47;5052765;28;20023;-87
2021/09/11 06:53:00;;;;;;;;;;;;;;;18.60;100.00;98862.47;5071721;28;19924;-84
2021/09/11 06:55:27;;;;;;;;;;;;;;;19.24;100.00;98867.13;5071366;28;19924;-85
2021/09/11 06:57:54;;;;;;;;;;;;;;;18.82;100.00;98857.28;5071688;28;20437;-86
2021/09/11 07:00:21;;;;;;;;;;;;;;;18.81;100.00;98867.03;5071451;28;19924;-85
2021/09/11 07:02:48;;;;;;;;;;;;;;;18.67;100.00;98864.94;5064845;28;20061;-85
2021/09/11 07:05:16;;;;;;;;;;;;;;;18.76;100.00;98868.50;5092448;28;20424;-85
2021/09/11 07:07:43;;;;;;;;;;;;;;;19.05;100.00;98868.53;5092582;28;19931;-85
2021/09/11 07:10:10;;;;;;;;;;;;;;;18.97;100.00;98875.06;5086308;28;19925;-85
2021/09/11 07:12:37;;;;;;;;;;;;;;;18.49;100.00;98868.69;5038240;28;19929;-85
2021/09/11 07:15:05;;;;;;;;;;;;;;;18.64;100.00;98880.06;5071084;28;19931;-84
2021/09/11 07:17:32;;;;;;;;;;;;;;;18.32;100.00;98875.19;5055625;28;19931;-84
2021/09/11 07:19:59;;;;;;;;;;;;;;;18.42;100.00;98888.81;5072173;28;19925;-85
2021/09/11 07:22:26;;;;;;;;;;;;;;;18.51;100.00;98888.78;5070093;28;19931;-83
2021/09/11 07:24:53;;;;;;;;;;;;;;;18.59;100.00;98883.53;5045167;28;19935;-83
2021/09/11 07:27:20;;;;;;;;;;;;;;;18.57;100.00;98888.91;5071790;28;19931;-87
2021/09/11 07:29:48;;;;;;;;;;;;;;;18.30;100.00;98886.97;5055381;28;19931;-84
2021/09/11 07:32:16;;;;;;;;;;;;;;;18.73;100.00;98886.44;5060753;28;19925;-84
2021/09/11 07:34:43;;;;;;;;;;;;;;;18.62;100.00;98893.88;5067227;28;20132;-84
2021/09/11 07:37:10;;;;;;;;;;;;;;;18.46;100.00;98894.31;5072207;28;19928;-84
2021/09/11 07:39:39;;;;;;;;;;;;;;;18.60;100.00;98891.53;5071942;28;19925;-84
2021/09/11 07:42:06;;;;;;;;;;;;;;;18.78;100.00;98888.56;5072049;28;19929;-85
2021/09/11 07:44:33;;;;;;;;;;;;;;;18.80;100.00;98886.06;5046127;28;19936;-84
2021/09/11 07:47:03;;;;;;;;;;;;;;;18.79;100.00;98884.50;5067108;28;20019;-84
2021/09/11 07:49:31;;;;;;;;;;;;;;;18.84;100.00;98886.66;5053679;28;20440;-84
2021/09/11 07:51:59;;;;;;;;;;;;;;;18.74;100.00;98890.81;5051247;28;19932;-84
2021/09/11 07:54:26;;;;;;;;;;;;;;;18.83;100.00;98887.91;5055412;28;19925;-84
2021/09/11 07:56:53;;;;;;;;;;;;;;;18.78;100.00;98897.06;5091959;28;19928;-84
2021/09/11 07:59:20;;;;;;;;;;;;;;;18.70;100.00;98901.56;5024776;28;19924;-84
2021/09/11 08:01:50;;;;;;;;;;;;;;;18.88;100.00;98898.59;5071779;28;19931;-85
2021/09/11 08:04:19;;;;;;;;;;;;;;;19.41;100.00;98907.91;5071570;28;19946;-85
2021/09/11 08:06:46;;;;;;;;;;;;;;;19.34;100.00;98896.94;5091680;28;19924;-84
2021/09/11 08:09:13;;;;;;;;;;;;;;;19.21;100.00;98901.28;5081083;28;20089;-85
2021/09/11 08:11:40;;;;;;;;;;;;;;;19.44;100.00;98906.94;5054695;28;19925;-85
2021/09/11 08:14:08;;;;;;;;;;;;;;;19.37;100.00;98910.13;5051588;28;19956;-85
2021/09/11 08:16:36;;;;;;;;;;;;;;;18.89;100.00;98907.84;5052005;28;19928;-85
2021/09/11 08:19:03;;;;;;;;;;;;;;;18.79;100.00;98909.97;5071618;28;19932;-84
2021/09/11 08:21:30;;;;;;;;;;;;;;;19.18;100.00;98911.53;5073859;28;19975;-86
2021/09/11 08:23:57;;;;;;;;;;;;;;;19.10;100.00;98910.34;5072673;28;19924;-87
2021/09/11 08:26:25;;;;;;;;;;;;;;;19.04;100.00;98920.00;5068981;28;19931;-86
2021/09/11 08:28:52;;;;;;;;;;;;;;;19.16;100.00;98919.75;5055049;28;19964;-85
2021/09/11 08:31:20;;;;;;;;;;;;;;;19.31;100.00;98925.47;5070872;28;19932;-85
2021/09/11 08:33:47;;;;;;;;;;;;;;;19.22;100.00;98926.28;5061205;28;19929;-85
2021/09/11 08:36:15;;;;;;;;;;;;;;;19.58;100.00;98939.38;5061551;28;19924;-85
2021/09/11 08:38:45;;;;;;;;;;;;;;;19.00;100.00;98936.38;5071266;28;19931;-85
2021/09/11 08:41:12;;;;;;;;;;;;;;;19.11;100.00;98945.91;5064362;28;19978;-85
2021/09/11 08:43:40;;;;;;;;;;;;;;;19.02;100.00;98940.28;5048486;28;20401;-84
2021/09/11 08:46:07;;;;;;;;;;;;;;;19.05;100.00;98955.56;5090791;28;20065;-85
2021/09/11 08:48:34;;;;;;;;;;;;;;;18.95;100.00;98963.31;5064902;28;19951;-85
2021/09/11 08:51:01;;;;;;;;;;;;;;;19.34;100.00;98969.84;5066064;28;19931;-85
2021/09/11 08:53:29;;;;;;;;;;;;;;;19.63;100.00;98967.81;5070495;28;20058;-82
2021/09/11 08:55:59;;;;;;;;;;;;;;;19.79;100.00;98963.72;5053030;28;19924;-81
2021/09/11 08:58:26;;;;;;;;;;;;;;;19.62;100.00;98973.97;5071736;28;19932;-81
2021/09/11 09:00:58;;;;;;;;;;;;;;;19.76;100.00;98963.91;5071849;28;20406;-81
2021/09/11 09:03:33;;;;;;;;;;;;;;;19.52;100.00;98970.44;5036911;28;19929;-81
2021/09/11 09:06:11;;;;;;;;;;;;;;;19.52;100.00;98967.59;5064111;28;20380;-81
2021/09/11 09:08:38;;;;;;;;;;;;;;;19.69;100.00;98965.88;5060626;28;19931;-81
2021/09/11 09:11:15;;;;;;;;;;;;;;;19.81;100.00;98966.09;5075170;28;19928;-81
2021/09/11 09:13:49;;;;;;;;;;;;;;;19.63;100.00;98964.97;5061250;28;19935;-81
2021/09/11 09:16:16;;;;;;;;;;;;;;;19.77;100.00;98962.63;5075695;28;19928;-81
2021/09/11 09:18:43;;;;;;;;;;;;;;;19.89;100.00;98965.19;5074058;28;20363;-81
2021/09/11 09:21:18;;;;;;;;;;;;;;;20.38;100.00;98955.97;5075687;28;19931;-82
2021/09/11 09:23:52;;;;;;;;;;;;;;;20.32;100.00;98963.63;5074961;28;19963;-81
2021/09/11 09:26:19;;;;;;;;;;;;;;;20.36;100.00;98958.53;5073659;28;19924;-81
2021/09/11 09:29:04;;;;;;;;;;;;;;;20.84;100.00;98962.63;5057174;28;19925;-81
2021/09/11 09:31:31;;;;;;;;;;;;;;;20.79;100.00;98958.41;5053816;28;20272;-81
2021/09/11 09:33:58;;;;;;;;;;;;;;;20.90;100.00;98950.03;5074246;28;20284;-82
2021/09/11 09:36:29;;;;;;;;;;;;;;;21.14;100.00;98947.03;5073871;28;20015;-82
2021/09/11 09:39:00;;;;;;;;;;;;;;;21.44;100.00;98948.41;5056954;28;20084;-81
2021/09/11 09:41:40;;;;;;;;;;;;;;;21.55;100.00;98940.03;5057087;28;19924;-82
2021/09/11 09:44:07;;;;;;;;;;;;;;;21.57;100.00;98939.53;5073434;28;19950;-81
2021/09/11 09:46:39;;;;;;;;;;;;;;;21.17;100.00;98940.34;5056924;28;20449;-82
2021/09/11 09:49:07;;;;;;;;;;;;;;;21.07;100.00;98938.91;5074475;28;19975;-81
2021/09/11 09:51:35;;;;;;;;;;;;;;;20.82;100.00;98948.13;5074392;28;19963;-81
2021/09/11 09:54:02;;;;;;;;;;;;;;;20.61;100.00;98953.00;5074393;28;19932;-81
2021/09/11 09:56:31;;;;;;;;;;;;;;;20.51;100.00;98945.06;5053182;28;20019;-81
2021/09/11 09:58:59;;;;;;;;;;;;;;;20.15;100.00;98951.22;5064827;28;20379;-81
2021/09/11 10:01:27;;;;;;;;;;;;;;;20.47;100.00;98953.81;5073121;28;19924;-81
2021/09/11 10:03:54;;;;;;;;;;;;;;;20.19;100.00;98951.81;5074143;28;20398;-81
2021/09/11 10:06:31;;;;;;;;;;;;;;;20.23;100.00;98947.50;5073131;28;19970;-81
2021/09/11 10:09:00;;;;;;;;;;;;;;;20.11;100.00;98953.47;5056159;28;19924;-81
2021/09/11 10:11:38;;;;;;;;;;;;;;;19.87;100.00;98949.94;5072946;28;19924;-81
2021/09/11 10:14:10;;;;;;;;;;;;;;;19.90;100.00;98946.13;5072961;28;19978;-87
2021/09/11 10:16:39;;;;;;;;;;;;;;;20.20;100.00;98948.50;5055879;28;19932;-84
2021/09/11 10:19:36;;;;;;;;;;;;;;;20.14;100.00;98958.19;5072756;28;19925;-83
2021/09/11 10:22:16;;;;;;;;;;;;;;;20.33;100.00;98956.66;5054979;28;19979;-80
2021/09/11 10:24:47;;;;;;;;;;;;;;;20.32;100.00;98969.31;5071453;28;19925;-83
2021/09/11 10:27:21;;;;;;;;;;;;;;;19.88;100.00;98965.69;5076601;28;20007;-83
2021/09/11 10:29:50;;;;;;;;;;;;;;;20.02;100.00;98964.91;5079949;28;19931;-83
2021/09/11 10:32:37;;;;;;;;;;;;;;;19.89;100.00;98965.19;5078181;28;19930;-83
2021/09/11 10:35:06;;;;;;;;;;;;;;;20.14;100.00;98963.84;5092779;28;19928;-83
2021/09/11 10:37:40;;;;;;;;;;;;;;;20.22;100.00;98967.84;5062753;28;19974;-84
2021/09/11 10:40:24;;;;;;;;;;;;;;;20.28;100.00;98963.06;5078194;28;19924;-84
2021/09/11 10:43:06;;;;;;;;;;;;;;;20.15;100.00;98956.91;5061636;28;20434;-82
2021/09/11 10:45:41;;;;;;;;;;;;;;;20.22;100.00;98962.19;5073110;28;19925;-82
2021/09/11 10:48:28;;;;;;;;;;;;;;;19.79;100.00;98960.09;5066035;28;20272;-82
2021/09/11 10:50:56;;;;;;;;;;;;;;;19.44;100.00;98971.31;5043067;28;19930;-82
2021/09/11 10:53:23;;;;;;;;;;;;;;;19.59;100.00;98969.28;5065543;28;19929;-83
2021/09/11 10:55:51;;;;;;;;;;;;;;;19.45;100.00;98968.00;5050164;28;19986;-82
2021/09/11 10:58:24;;;;;;;;;;;;;;;19.67;100.00;98968.41;5072643;28;20007;-82
2021/09/11 11:00:58;;;;;;;;;;;;;;;19.73;100.00;98972.13;5036449;28;19924;-81
2021/09/11 11:03:26;;;;;;;;;;;;;;;19.69;100.00;98976.41;5067346;28;20013;-83
2021/09/11 11:05:57;;;;;;;;;;;;;;;19.92;100.00;98977.63;5056038;28;20005;-82
2021/09/11 11:08:29;;;;;;;;;;;;;;;20.09;100.00;98978.69;5056373;28;19979;-82
2021/09/11 11:10:58;;;;;;;;;;;;;;;20.08;100.00;98979.97;5038872;28;19925;-82
2021/09/11 11:13:28;;;;;;;;;;;;;;;20.05;100.00;98978.09;5061757;28;19925;-82
2021/09/11 11:16:21;;;;;;;;;;;;;;;20.11;100.00;98967.63;5053381;28;19924;-82
2021/09/11 11:18:50;;;;;;;;;;;;;;;20.22;100.00;98982.03;5073935;28;19925;-81
2021/09/11 11:21:18;;;;;;;;;;;;;;;20.21;100.00;98977.63;5054326;28;19924;-81
2021/09/11 11:23:46;;;;;;;;;;;;;;;20.16;100.00;98975.50;5076769;28;19960;-81
2021/09/11 11:26:13;;;;;;;;;;;;;;;20.26;100.00;98974.09;5072675;28;19924;-81
2021/09/11 11:28:40;;;;;;;;;;;;;;;20.27;100.00;98973.63;5071753;28;19982;-82
2021/09/11 11:31:07;;;;;;;;;;;;;;;20.51;100.00;98976.28;5049924;28;20019;-82
2021/09/11 11:33:43;;;;;;;;;;;;;;;20.51;100.00;98970.63;5067205;28;19924;-82
2021/09/11 11:36:10;;;;;;;;;;;;;;;20.53;100.00;98966.03;5060386;28;20018;-82
2021/09/11 11:38:38;;;;;;;;;;;;;;;20.61;100.00;98966.41;5085591;28;19938;-82
2021/09/11 11:41:06;;;;;;;;;;;;;;;20.77;100.00;98969.47;5050400;28;19924;-82
2021/09/11 11:43:36;;;;;;;;;;;;;;;20.82;100.00;98963.09;5069209;28;19924;-82
2021/09/11 11:46:03;;;;;;;;;;;;;;;20.73;100.00;98973.81;5082475;28;19935;-82
2021/09/11 11:48:30;;;;;;;;;;;;;;;20.96;100.00;98978.56;5087642;28;19924;-82
2021/09/11 11:50:58;;;;;;;;;;;;;;;21.19;100.00;98972.66;5079947;28;19924;-82
2021/09/11 11:53:30;;;;;;;;;;;;;;;21.21;100.00;98975.00;5071231;28;20346;-82
2021/09/11 11:55:57;;;;;;;;;;;;;;;20.70;100.00;98969.13;5071046;28;19932;-82
2021/09/11 11:58:30;;;;;;;;;;;;;;;20.60;100.00;98964.84;5071317;28;20016;-82
2021/09/11 12:00:58;;;;;;;;;;;;;;;20.64;100.00;98965.41;5077248;28;19924;-82
2021/09/11 12:03:32;;;;;;;;;;;;;;;20.93;100.00;98954.72;5051114;28;20003;-82
2021/09/11 12:06:00;;;;;;;;;;;;;;;20.73;100.00;98965.28;5031116;28;20292;-81
2021/09/11 12:08:27;;;;;;;;;;;;;;;20.64;100.00;98965.41;5070895;28;20019;-82
2021/09/11 12:10:55;;;;;;;;;;;;;;;20.99;100.00;98963.38;5071226;28;19928;-81
2021/09/11 12:13:22;;;;;;;;;;;;;;;20.62;100.00;98957.41;5070898;28;19924;-82
2021/09/11 12:15:49;;;;;;;;;;;;;;;20.78;100.00;98970.28;5071128;28;19967;-82
2021/09/11 12:18:17;;;;;;;;;;;;;;;21.00;100.00;98964.91;5070959;28;20025;-82
2021/09/11 12:20:46;;;;;;;;;;;;;;;20.85;100.00;98969.84;5072257;28;19989;-82
2021/09/11 12:23:14;;;;;;;;;;;;;;;20.84;100.00;98963.38;5070797;28;19924;-82
2021/09/11 12:26:00;;;;;;;;;;;;;;;20.64;100.00;98960.53;5072244;28;19932;-82
2021/09/11 12:28:45;;;;;;;;;;;;;;;20.94;100.00;98961.19;5064614;28;19986;-84
2021/09/11 12:31:19;;;;;;;;;;;;;;;21.30;100.00;98940.75;5063501;28;19975;-84
2021/09/11 12:33:56;;;;;;;;;;;;;;;21.28;100.00;98944.09;5058733;28;20346;-83
2021/09/11 12:36:34;;;;;;;;;;;;;;;21.10;100.00;98957.81;5086320;28;19931;-84
2021/09/11 12:39:04;;;;;;;;;;;;;;;20.85;100.00;98967.81;5064148;28;20347;-84
2021/09/11 12:41:31;;;;;;;;;;;;;;;20.28;100.00;98957.38;5053323;28;20354;-83
2021/09/11 12:44:00;;;;;;;;;;;;;;;20.65;100.00;98962.09;5043137;28;19924;-83